createdAt,value
2022-10-26T09:19:14.094Z,10.80
2022-10-26T09:21:49.575Z,10.80
2022-10-26T09:24:32.987Z,10.80
2022-10-26T09:27:08.696Z,10.80
2022-10-26T09:29:46.345Z,10.90
2022-10-26T09:32:18.980Z,10.90
2022-10-26T09:34:51.701Z,11.00
2022-10-26T09:37:26.799Z,11.00
2022-10-26T09:40:10.013Z,11.00
2022-10-26T09:45:52.494Z,11.10
2022-10-26T09:48:30.084Z,11.10
2022-10-26T09:51:04.486Z,11.10
2022-10-26T09:53:34.340Z,11.20
2022-10-26T09:56:04.914Z,11.20
2022-10-26T09:59:25.599Z,11.20
2022-10-26T10:02:48.094Z,11.20
2022-10-26T10:08:26.656Z,11.30
2022-10-26T10:10:57.736Z,11.40
2022-10-26T10:13:42.533Z,11.50
2022-10-26T10:16:34.859Z,11.50
2022-10-26T10:22:14.305Z,11.60
2022-10-26T10:25:02.930Z,11.60
2022-10-26T10:27:35.287Z,11.60
2022-10-26T10:30:24.170Z,11.60
2022-10-26T10:33:12.839Z,11.60
2022-10-26T10:35:49.478Z,11.60
2022-10-26T10:38:24.323Z,11.60
2022-10-26T10:40:58.717Z,11.60
2022-10-26T10:43:29.462Z,11.60
2022-10-26T10:46:02.982Z,11.60
2022-10-26T10:48:33.513Z,11.70
2022-10-26T10:51:06.180Z,11.80
2022-10-26T10:53:39.139Z,11.80
2022-10-26T10:56:11.644Z,11.80
2022-10-26T10:58:43.216Z,11.80
2022-10-26T11:01:35.371Z,11.80
2022-10-26T11:07:52.255Z,11.70
2022-10-26T11:10:23.686Z,12.00
2022-10-26T11:12:57.900Z,12.00
2022-10-26T11:15:33.501Z,12.10
2022-10-26T11:18:13.254Z,12.20
2022-10-26T11:20:49.989Z,12.40
2022-10-26T11:23:21.736Z,12.40
2022-10-26T11:25:54.211Z,12.60
2022-10-26T11:28:38.995Z,12.60
2022-10-26T11:31:13.697Z,12.70
2022-10-26T11:33:43.407Z,12.60
2022-10-26T11:36:17.297Z,12.60
2022-10-26T11:38:59.288Z,12.60
2022-10-26T11:41:42.613Z,12.80
2022-10-26T11:44:15.188Z,13.00
2022-10-26T11:46:46.832Z,13.10
2022-10-26T11:49:27.549Z,13.20
2022-10-26T11:52:21.443Z,13.20
2022-10-26T11:54:48.885Z,13.30
2022-10-26T11:57:18.474Z,13.30
2022-10-26T11:59:52.099Z,13.30
2022-10-26T12:02:25.785Z,13.30
2022-10-26T12:04:57.065Z,13.40
2022-10-26T12:07:34.268Z,13.50
2022-10-26T12:10:11.400Z,13.60
2022-10-26T12:12:47.516Z,13.80
2022-10-26T12:16:03.540Z,13.90
2022-10-26T12:18:57.865Z,14.00
2022-10-26T12:21:37.591Z,14.20
2022-10-26T12:24:48.503Z,14.40
2022-10-26T12:27:38.228Z,14.40
2022-10-26T12:30:17.728Z,14.60
2022-10-26T12:32:56.379Z,14.70
2022-10-26T12:35:39.118Z,14.80
2022-10-26T12:38:24.434Z,14.70
2022-10-26T12:41:08.390Z,14.70
2022-10-26T12:43:41.135Z,14.80
2022-10-26T12:46:10.630Z,14.90
2022-10-26T12:48:44.540Z,15.10
2022-10-26T12:51:48.351Z,15.20
2022-10-26T12:54:39.088Z,15.40
2022-10-26T12:57:19.824Z,15.60
2022-10-26T13:03:14.297Z,16.00
2022-10-26T13:06:06.478Z,16.30
2022-10-26T13:08:47.649Z,16.60
2022-10-26T13:11:37.852Z,16.70
2022-10-26T13:14:08.479Z,16.90
2022-10-26T13:16:41.733Z,17.10
2022-10-26T13:22:20.061Z,17.30
2022-10-26T13:24:55.011Z,17.50
2022-10-26T13:27:24.247Z,17.60
2022-10-26T13:30:05.024Z,17.60
2022-10-26T13:32:43.576Z,17.60
2022-10-26T13:35:17.203Z,17.70
2022-10-26T13:37:47.388Z,17.70
2022-10-26T13:40:19.320Z,17.80
2022-10-26T13:42:48.181Z,17.70
2022-10-26T13:45:19.017Z,17.70
2022-10-26T13:47:57.171Z,17.70
2022-10-26T13:50:28.842Z,17.70
2022-10-26T13:53:07.973Z,17.70
2022-10-26T13:55:45.202Z,17.70
2022-10-26T13:58:17.801Z,17.70
2022-10-26T14:01:02.560Z,17.70
2022-10-26T14:03:31.190Z,17.70
2022-10-26T14:06:03.182Z,17.70
2022-10-26T14:08:31.350Z,17.70
2022-10-26T14:11:00.038Z,17.70
2022-10-26T14:13:31.080Z,17.70
2022-10-26T14:16:02.841Z,17.80
2022-10-26T14:18:33.899Z,17.90
2022-10-26T14:21:03.587Z,17.90
2022-10-26T15:09:48.827Z,17.60
2022-10-26T15:12:37.039Z,17.40
2022-10-26T15:15:18.877Z,17.30
2022-10-26T15:18:01.494Z,17.20
2022-10-26T15:20:30.120Z,17.10
2022-10-26T15:23:02.744Z,17.10
2022-10-26T15:25:35.424Z,17.10
2022-10-26T15:28:24.401Z,17.10
2022-10-26T15:31:01.363Z,16.90
2022-10-26T15:33:29.230Z,16.80
2022-10-26T15:36:16.393Z,16.80
2022-10-26T15:38:45.425Z,16.70
2022-10-26T15:41:15.687Z,16.70
2022-10-26T15:43:44.324Z,16.80
2022-10-26T15:46:13.965Z,16.70
2022-10-26T18:32:58.119Z,13.70
2022-10-26T18:35:28.324Z,13.60
2022-10-26T18:38:02.175Z,13.60
2022-10-26T18:40:31.748Z,13.60
2022-10-26T18:42:59.621Z,13.60
2022-10-26T18:45:29.259Z,13.60
2022-10-26T18:47:58.098Z,13.60
2022-10-26T18:50:26.535Z,13.60
2022-10-26T18:52:56.745Z,13.60
2022-10-26T18:55:25.782Z,13.50
2022-10-26T18:57:53.592Z,13.50
2022-10-26T19:00:23.078Z,13.50
2022-10-26T19:02:52.596Z,13.30
2022-10-26T19:05:22.527Z,13.30
2022-10-26T19:07:52.316Z,13.30
2022-10-26T19:10:19.969Z,13.30
2022-10-26T19:12:48.981Z,13.30
2022-10-26T19:15:17.348Z,13.20
2022-10-26T19:17:45.969Z,13.20
2022-10-26T19:20:14.740Z,13.20
2022-10-26T19:22:44.369Z,13.20
2022-10-26T19:25:13.135Z,13.10
2022-10-26T19:27:42.891Z,13.00
2022-10-26T19:30:13.784Z,13.00
2022-10-26T19:32:47.591Z,13.00
2022-10-26T19:35:16.893Z,12.90
2022-10-26T19:37:45.485Z,12.90
2022-10-26T19:40:15.228Z,13.00
2022-10-26T19:43:02.855Z,12.90
2022-10-26T19:45:33.867Z,12.90
2022-10-26T19:48:03.470Z,12.90
2022-10-26T19:50:36.910Z,12.90
2022-10-26T19:53:07.553Z,12.90
2022-10-26T19:55:44.693Z,12.90
2022-10-26T19:58:18.359Z,12.80
2022-10-26T20:01:01.002Z,12.80
2022-10-26T20:03:29.892Z,12.70
2022-10-26T20:06:01.608Z,12.70
2022-10-26T20:08:30.272Z,12.60
2022-10-26T20:10:59.973Z,12.60
2022-10-26T20:13:28.563Z,12.60
2022-10-26T20:15:59.481Z,12.60
2022-10-26T20:18:29.946Z,12.60
2022-10-26T20:21:00.700Z,12.50
2022-10-26T20:23:36.292Z,12.60
2022-10-26T20:28:33.874Z,12.60
2022-10-26T20:31:02.570Z,12.60
2022-10-26T20:33:33.292Z,12.60
2022-10-26T20:36:04.051Z,12.60
2022-10-26T20:38:32.775Z,12.50
2022-10-26T20:41:01.901Z,12.50
2022-10-26T20:43:35.174Z,12.50
2022-10-26T20:46:03.814Z,12.60
2022-10-26T20:48:35.521Z,12.50
2022-10-26T20:51:07.274Z,12.40
2022-10-26T20:53:36.879Z,12.50
2022-10-26T20:56:07.822Z,12.50
2022-10-26T20:58:39.554Z,12.50
2022-10-26T21:01:12.239Z,12.50
2022-10-26T21:03:42.384Z,12.40
2022-10-26T21:06:12.081Z,12.30
2022-10-26T21:08:39.903Z,12.30
2022-10-26T21:11:07.530Z,12.30
2022-10-26T21:13:35.290Z,12.30
2022-10-26T21:16:06.817Z,12.30
2022-10-26T21:18:34.691Z,12.20
2022-10-26T21:21:02.439Z,12.20
2022-10-26T21:23:31.368Z,12.20
2022-10-26T21:26:00.091Z,12.10
2022-10-26T21:28:34.829Z,12.10
2022-10-26T21:31:07.504Z,12.10
2022-10-26T21:33:36.265Z,12.10
2022-10-26T21:36:05.918Z,12.10
2022-10-26T21:38:35.557Z,12.10
2022-10-26T21:41:06.831Z,12.10
2022-10-26T21:43:35.476Z,12.00
2022-10-26T21:46:04.183Z,12.00
2022-10-26T21:48:32.177Z,12.00
2022-10-26T21:51:02.492Z,11.90
2022-10-26T21:53:31.242Z,11.90
2022-10-26T21:56:02.172Z,11.90
2022-10-26T21:58:30.931Z,11.80
2022-10-26T22:01:05.750Z,11.70
2022-10-26T22:03:34.607Z,11.80
2022-10-26T22:06:04.348Z,11.70
2022-10-26T22:08:31.549Z,11.60
2022-10-26T22:10:59.539Z,11.60
2022-10-26T22:13:28.233Z,11.50
2022-10-26T22:16:03.083Z,11.50
2022-10-26T22:18:30.759Z,11.50
2022-10-26T22:20:59.400Z,11.50
2022-10-26T22:23:29.179Z,11.50
2022-10-26T22:26:01.787Z,11.50
2022-10-26T22:28:32.063Z,11.50
2022-10-26T22:31:03.931Z,11.50
2022-10-26T22:33:33.121Z,11.50
2022-10-26T22:36:10.878Z,11.50
2022-10-26T22:38:39.548Z,11.50
2022-10-26T22:41:07.629Z,11.50
2022-10-26T22:43:36.298Z,11.50
2022-10-26T22:46:15.017Z,11.40
2022-10-26T22:48:42.612Z,11.40
2022-10-26T22:51:12.421Z,11.40
2022-10-26T22:53:40.101Z,11.40
2022-10-26T22:56:09.812Z,11.40
2022-10-26T22:58:38.608Z,11.40
2022-10-26T23:01:12.269Z,11.50
2022-10-26T23:03:40.800Z,11.50
2022-10-26T23:06:09.468Z,11.50
2022-10-26T23:08:37.108Z,11.50
2022-10-26T23:11:06.740Z,11.50
2022-10-26T23:13:37.474Z,11.50
2022-10-26T23:16:08.912Z,11.50
2022-10-26T23:18:37.707Z,11.40
2022-10-26T23:21:07.347Z,11.50
2022-10-26T23:23:36.031Z,11.40
2022-10-26T23:26:04.688Z,11.40
2022-10-26T23:28:33.446Z,11.30
2022-10-26T23:31:01.150Z,11.30
2022-10-26T23:33:28.240Z,11.30
2022-10-26T23:35:57.693Z,11.30
2022-10-26T23:38:25.731Z,11.30
2022-10-26T23:40:54.911Z,11.20
2022-10-26T23:43:23.547Z,11.20
2022-10-26T23:45:51.153Z,11.20
2022-10-26T23:48:19.814Z,11.10
2022-10-26T23:50:48.432Z,11.20
2022-10-26T23:53:16.517Z,11.20
2022-10-26T23:55:45.765Z,11.20
2022-10-26T23:58:14.440Z,11.10
